sensor_id;sensor_type;location;lat;lon;timestamp;pressure;altitude;pressure_sealevel;temperature;humidity
57628;BME280;43451;49.060;10.616;2024-01-16T00:00:07;95961.94;;;-0.90;100.00
57628;BME280;43451;49.060;10.616;2024-01-16T00:02:34;95989.06;;;-1.12;100.00
57628;BME280;43451;49.060;10.616;2024-01-16T00:04:59;95982.75;;;-1.20;100.00
57628;BME280;43451;49.060;10.616;2024-01-16T00:07:25;95973.16;;;-1.33;100.00
57628;BME280;43451;49.060;10.616;2024-01-16T00:09:50;95974.63;;;-1.36;100.00
57628;BME280;43451;49.060;10.616;2024-01-16T00:12:18;95968.09;;;-1.26;100.00
57628;BME280;43451;49.060;10.616;2024-01-16T00:14:43;95975.53;;;-1.20;100.00
57628;BME280;43451;49.060;10.616;2024-01-16T00:17:09;95970.75;;;-1.26;100.00
57628;BME280;43451;49.060;10.616;2024-01-16T00:19:35;95960.09;;;-1.38;100.00
57628;BME280;43451;49.060;10.616;2024-01-16T00:22:00;95975.63;;;-1.28;100.00
57628;BME280;43451;49.060;10.616;2024-01-16T00:24:28;95980.84;;;-1.44;100.00
57628;BME280;43451;49.060;10.616;2024-01-16T00:26:53;95987.81;;;-1.52;100.00
57628;BME280;43451;49.060;10.616;2024-01-16T00:29:19;95993.38;;;-1.45;100.00
57628;BME280;43451;49.060;10.616;2024-01-16T00:31:45;95998.25;;;-1.34;100.00
57628;BME280;43451;49.060;10.616;2024-01-16T00:34:11;96000.63;;;-1.33;100.00
57628;BME280;43451;49.060;10.616;2024-01-16T00:36:36;95994.47;;;-1.33;100.00
57628;BME280;43451;49.060;10.616;2024-01-16T00:39:02;95998.06;;;-1.29;100.00
57628;BME280;43451;49.060;10.616;2024-01-16T00:41:28;96002.47;;;-1.21;100.00
57628;BME280;43451;49.060;10.616;2024-01-16T00:43:54;96004.28;;;-1.13;100.00
57628;BME280;43451;49.060;10.616;2024-01-16T00:46:19;96010.28;;;-1.16;100.00
57628;BME280;43451;49.060;10.616;2024-01-16T00:48:46;96004.50;;;-1.18;100.00
57628;BME280;43451;49.060;10.616;2024-01-16T00:51:11;96003.81;;;-1.27;100.00
57628;BME280;43451;49.060;10.616;2024-01-16T00:53:41;96006.50;;;-1.15;100.00
57628;BME280;43451;49.060;10.616;2024-01-16T00:56:06;96011.38;;;-1.17;100.00
57628;BME280;43451;49.060;10.616;2024-01-16T00:58:32;96020.16;;;-1.17;100.00
57628;BME280;43451;49.060;10.616;2024-01-16T01:00:57;96015.69;;;-1.25;100.00
57628;BME280;43451;49.060;10.616;2024-01-16T01:03:23;96021.38;;;-1.26;100.00
57628;BME280;43451;49.060;10.616;2024-01-16T01:05:48;96022.16;;;-1.13;100.00
57628;BME280;43451;49.060;10.616;2024-01-16T01:08:14;96015.81;;;-1.21;100.00
57628;BME280;43451;49.060;10.616;2024-01-16T01:10:39;96015.28;;;-1.27;100.00
57628;BME280;43451;49.060;10.616;2024-01-16T01:13:05;96011.59;;;-1.22;100.00
57628;BME280;43451;49.060;10.616;2024-01-16T01:15:30;96019.16;;;-1.12;100.00
57628;BME280;43451;49.060;10.616;2024-01-16T01:17:56;96022.16;;;-1.26;100.00
57628;BME280;43451;49.060;10.616;2024-01-16T01:20:21;96031.81;;;-1.09;100.00
57628;BME280;43451;49.060;10.616;2024-01-16T01:22:47;96024.03;;;-1.26;100.00
57628;BME280;43451;49.060;10.616;2024-01-16T01:25:13;96028.16;;;-1.17;100.00
57628;BME280;43451;49.060;10.616;2024-01-16T01:27:39;96031.78;;;-1.33;100.00
57628;BME280;43451;49.060;10.616;2024-01-16T01:30:08;96042.69;;;-1.26;100.00
57628;BME280;43451;49.060;10.616;2024-01-16T01:32:37;96045.59;;;-1.07;100.00
57628;BME280;43451;49.060;10.616;2024-01-16T01:35:03;96052.34;;;-1.09;100.00
57628;BME280;43451;49.060;10.616;2024-01-16T01:37:28;96053.13;;;-1.09;100.00
57628;BME280;43451;49.060;10.616;2024-01-16T01:39:54;96047.59;;;-1.04;100.00
57628;BME280;43451;49.060;10.616;2024-01-16T01:42:20;96053.59;;;-0.95;100.00
57628;BME280;43451;49.060;10.616;2024-01-16T01:44:45;96047.91;;;-1.05;100.00
57628;BME280;43451;49.060;10.616;2024-01-16T01:47:11;96052.25;;;-1.13;100.00
57628;BME280;43451;49.060;10.616;2024-01-16T01:49:37;96056.56;;;-1.21;100.00
57628;BME280;43451;49.060;10.616;2024-01-16T01:52:04;96052.34;;;-1.22;100.00
57628;BME280;43451;49.060;10.616;2024-01-16T01:54:31;96061.47;;;-1.10;100.00
57628;BME280;43451;49.060;10.616;2024-01-16T01:56:58;96055.59;;;-1.04;100.00
57628;BME280;43451;49.060;10.616;2024-01-16T01:59:24;96056.16;;;-1.10;100.00
57628;BME280;43451;49.060;10.616;2024-01-16T02:01:51;96054.72;;;-1.08;100.00
57628;BME280;43451;49.060;10.616;2024-01-16T02:04:21;96056.47;;;-1.00;100.00
57628;BME280;43451;49.060;10.616;2024-01-16T02:06:47;96056.03;;;-1.14;100.00
57628;BME280;43451;49.060;10.616;2024-01-16T02:09:12;96061.47;;;-1.10;100.00
57628;BME280;43451;49.060;10.616;2024-01-16T02:11:41;96057.13;;;-1.15;100.00
57628;BME280;43451;49.060;10.616;2024-01-16T02:14:07;96067.34;;;-1.05;100.00
57628;BME280;43451;49.060;10.616;2024-01-16T02:16:38;96056.91;;;-1.10;100.00
57628;BME280;43451;49.060;10.616;2024-01-16T02:19:04;96058.03;;;-0.99;100.00
57628;BME280;43451;49.060;10.616;2024-01-16T02:21:42;96055.59;;;-1.04;100.00
57628;BME280;43451;49.060;10.616;2024-01-16T02:24:10;96053.13;;;-0.97;100.00
57628;BME280;43451;49.060;10.616;2024-01-16T02:26:37;96047.59;;;-0.91;100.00
57628;BME280;43451;49.060;10.616;2024-01-16T02:29:03;96042.69;;;-0.89;100.00
57628;BME280;43451;49.060;10.616;2024-01-16T02:31:30;96051.03;;;-0.91;100.00
57628;BME280;43451;49.060;10.616;2024-01-16T02:33:56;96050.34;;;-1.12;100.00
57628;BME280;43451;49.060;10.616;2024-01-16T02:36:22;96044.47;;;-1.18;100.00
57628;BME280;43451;49.060;10.616;2024-01-16T02:38:47;96051.78;;;-1.27;100.00
57628;BME280;43451;49.060;10.616;2024-01-16T02:41:16;96051.53;;;-1.34;100.00
57628;BME280;43451;49.060;10.616;2024-01-16T02:43:42;96043.78;;;-1.39;100.00
57628;BME280;43451;49.060;10.616;2024-01-16T02:46:08;96063.63;;;-1.37;100.00
57628;BME280;43451;49.060;10.616;2024-01-16T02:48:35;96049.78;;;-1.43;100.00
57628;BME280;43451;49.060;10.616;2024-01-16T02:51:01;96046.31;;;-1.55;100.00
57628;BME280;43451;49.060;10.616;2024-01-16T02:53:26;96050.81;;;-1.56;100.00
57628;BME280;43451;49.060;10.616;2024-01-16T02:55:54;96052.94;;;-1.61;100.00
57628;BME280;43451;49.060;10.616;2024-01-16T02:58:20;96054.88;;;-1.83;100.00
57628;BME280;43451;49.060;10.616;2024-01-16T03:00:46;96055.34;;;-1.69;100.00
57628;BME280;43451;49.060;10.616;2024-01-16T03:03:12;96052.13;;;-1.74;100.00
57628;BME280;43451;49.060;10.616;2024-01-16T03:05:39;96051.59;;;-1.68;100.00
57628;BME280;43451;49.060;10.616;2024-01-16T03:08:05;96057.41;;;-1.87;100.00
57628;BME280;43451;49.060;10.616;2024-01-16T03:10:31;96053.91;;;-1.99;100.00
57628;BME280;43451;49.060;10.616;2024-01-16T03:12:56;96060.19;;;-2.04;100.00
57628;BME280;43451;49.060;10.616;2024-01-16T03:15:22;96070.25;;;-2.10;100.00
57628;BME280;43451;49.060;10.616;2024-01-16T03:17:48;96065.13;;;-2.36;100.00
57628;BME280;43451;49.060;10.616;2024-01-16T03:20:15;96054.50;;;-2.36;100.00
57628;BME280;43451;49.060;10.616;2024-01-16T03:22:40;96065.25;;;-2.53;100.00
57628;BME280;43451;49.060;10.616;2024-01-16T03:25:08;96059.56;;;-2.43;100.00
57628;BME280;43451;49.060;10.616;2024-01-16T03:27:33;96065.88;;;-2.47;100.00
57628;BME280;43451;49.060;10.616;2024-01-16T03:30:00;96080.13;;;-2.52;100.00
57628;BME280;43451;49.060;10.616;2024-01-16T03:32:26;96075.78;;;-2.57;100.00
57628;BME280;43451;49.060;10.616;2024-01-16T03:34:51;96080.13;;;-2.52;100.00
57628;BME280;43451;49.060;10.616;2024-01-16T03:37:17;96081.25;;;-2.62;100.00
57628;BME280;43451;49.060;10.616;2024-01-16T03:39:42;96080.50;;;-2.62;100.00
57628;BME280;43451;49.060;10.616;2024-01-16T03:42:11;96078.47;;;-2.65;100.00
57628;BME280;43451;49.060;10.616;2024-01-16T03:44:39;96097.09;;;-2.65;100.00
57628;BME280;43451;49.060;10.616;2024-01-16T03:47:05;96082.00;;;-2.82;100.00
57628;BME280;43451;49.060;10.616;2024-01-16T03:49:31;96084.38;;;-2.89;100.00
57628;BME280;43451;49.060;10.616;2024-01-16T03:51:56;96083.09;;;-2.83;100.00
57628;BME280;43451;49.060;10.616;2024-01-16T03:54:22;96083.28;;;-2.88;100.00
57628;BME280;43451;49.060;10.616;2024-01-16T03:56:47;96085.53;;;-2.69;100.00
57628;BME280;43451;49.060;10.616;2024-01-16T03:59:12;96076.47;;;-2.68;100.00
57628;BME280;43451;49.060;10.616;2024-01-16T04:01:39;96088.09;;;-2.82;100.00
57628;BME280;43451;49.060;10.616;2024-01-16T04:04:06;96100.88;;;-2.75;100.00
57628;BME280;43451;49.060;10.616;2024-01-16T04:06:32;96088.53;;;-2.80;100.00
57628;BME280;43451;49.060;10.616;2024-01-16T04:08:58;96087.47;;;-2.78;100.00
57628;BME280;43451;49.060;10.616;2024-01-16T04:11:23;96079.53;;;-2.87;100.00
57628;BME280;43451;49.060;10.616;2024-01-16T04:13:49;96083.22;;;-2.80;100.00
57628;BME280;43451;49.060;10.616;2024-01-16T04:16:15;96074.91;;;-2.69;100.00
57628;BME280;43451;49.060;10.616;2024-01-16T04:18:42;96076.72;;;-2.61;100.00
57628;BME280;43451;49.060;10.616;2024-01-16T04:21:08;96066.94;;;-2.69;100.00
57628;BME280;43451;49.060;10.616;2024-01-16T04:23:33;96072.41;;;-2.74;100.00
57628;BME280;43451;49.060;10.616;2024-01-16T04:25:59;96073.16;;;-2.95;100.00
57628;BME280;43451;49.060;10.616;2024-01-16T04:28:25;96073.16;;;-2.95;100.00
57628;BME280;43451;49.060;10.616;2024-01-16T04:30:51;96075.53;;;-3.02;100.00
57628;BME280;43451;49.060;10.616;2024-01-16T04:33:17;96078.91;;;-3.22;100.00
57628;BME280;43451;49.060;10.616;2024-01-16T04:35:42;96084.44;;;-3.54;100.00
57628;BME280;43451;49.060;10.616;2024-01-16T04:38:08;96086.47;;;-3.59;100.00
57628;BME280;43451;49.060;10.616;2024-01-16T04:40:33;96079.91;;;-3.53;100.00
57628;BME280;43451;49.060;10.616;2024-01-16T04:42:59;96083.66;;;-3.54;100.00
57628;BME280;43451;49.060;10.616;2024-01-16T04:45:25;96093.06;;;-3.74;100.00
57628;BME280;43451;49.060;10.616;2024-01-16T04:47:50;96076.28;;;-3.40;100.00
57628;BME280;43451;49.060;10.616;2024-01-16T04:50:16;96072.41;;;-3.51;100.00
57628;BME280;43451;49.060;10.616;2024-01-16T04:52:42;96078.34;;;-3.45;100.00
57628;BME280;43451;49.060;10.616;2024-01-16T04:55:08;96067.41;;;-3.44;100.00
57628;BME280;43451;49.060;10.616;2024-01-16T04:57:34;96072.88;;;-3.49;100.00
57628;BME280;43451;49.060;10.616;2024-01-16T05:00:00;96071.84;;;-3.18;100.00
57628;BME280;43451;49.060;10.616;2024-01-16T05:02:26;96074.88;;;-2.99;100.00
57628;BME280;43451;49.060;10.616;2024-01-16T05:04:51;96084.66;;;-2.82;100.00
57628;BME280;43451;49.060;10.616;2024-01-16T05:07:22;96085.25;;;-2.76;100.00
57628;BME280;43451;49.060;10.616;2024-01-16T05:09:48;96077.47;;;-2.82;100.00
57628;BME280;43451;49.060;10.616;2024-01-16T05:12:14;96079.78;;;-2.80;100.00
57628;BME280;43451;49.060;10.616;2024-01-16T05:14:40;96087.34;;;-2.91;100.00
57628;BME280;43451;49.060;10.616;2024-01-16T05:17:05;96079.56;;;-2.96;100.00
57628;BME280;43451;49.060;10.616;2024-01-16T05:19:31;96075.16;;;-2.92;100.00
57628;BME280;43451;49.060;10.616;2024-01-16T05:21:57;96069.03;;;-2.84;100.00
57628;BME280;43451;49.060;10.616;2024-01-16T05:24:22;96072.69;;;-2.67;100.00
57628;BME280;43451;49.060;10.616;2024-01-16T05:26:48;96082.91;;;-2.78;100.00
57628;BME280;43451;49.060;10.616;2024-01-16T05:29:14;96091.06;;;-2.83;100.00
57628;BME280;43451;49.060;10.616;2024-01-16T05:31:42;96079.50;;;-2.78;100.00
57628;BME280;43451;49.060;10.616;2024-01-16T05:34:09;96078.38;;;-3.07;100.00
57628;BME280;43451;49.060;10.616;2024-01-16T05:36:34;96077.63;;;-2.87;100.00
57628;BME280;43451;49.060;10.616;2024-01-16T05:39:00;96068.56;;;-2.86;100.00
57628;BME280;43451;49.060;10.616;2024-01-16T05:41:26;96068.63;;;-2.94;100.00
57628;BME280;43451;49.060;10.616;2024-01-16T05:43:52;96078.69;;;-3.09;100.00
57628;BME280;43451;49.060;10.616;2024-01-16T05:46:18;96076.34;;;-3.10;100.00
57628;BME280;43451;49.060;10.616;2024-01-16T05:48:43;96076.50;;;-3.15;100.00
57628;BME280;43451;49.060;10.616;2024-01-16T05:51:09;96075.47;;;-3.23;100.00
57628;BME280;43451;49.060;10.616;2024-01-16T05:53:35;96082.19;;;-3.25;100.00
57628;BME280;43451;49.060;10.616;2024-01-16T05:56:00;96077.91;;;-3.09;100.00
57628;BME280;43451;49.060;10.616;2024-01-16T05:58:26;96081.34;;;-3.09;100.00
57628;BME280;43451;49.060;10.616;2024-01-16T06:00:51;96080.59;;;-3.18;100.00
57628;BME280;43451;49.060;10.616;2024-01-16T06:03:17;96082.53;;;-3.36;100.00
57628;BME280;43451;49.060;10.616;2024-01-16T06:05:42;96083.44;;;-3.32;100.00
57628;BME280;43451;49.060;10.616;2024-01-16T06:08:08;96084.00;;;-3.17;100.00
57628;BME280;43451;49.060;10.616;2024-01-16T06:10:33;96083.06;;;-3.13;100.00
57628;BME280;43451;49.060;10.616;2024-01-16T06:12:58;96081.66;;;-3.10;100.00
57628;BME280;43451;49.060;10.616;2024-01-16T06:15:24;96083.94;;;-3.38;100.00
57628;BME280;43451;49.060;10.616;2024-01-16T06:17:49;96083.53;;;-3.58;100.00
57628;BME280;43451;49.060;10.616;2024-01-16T06:20:15;96080.66;;;-3.44;100.00
57628;BME280;43451;49.060;10.616;2024-01-16T06:22:40;96080.19;;;-3.46;100.00
57628;BME280;43451;49.060;10.616;2024-01-16T06:25:06;96075.56;;;-3.58;100.00
57628;BME280;43451;49.060;10.616;2024-01-16T06:27:32;96073.88;;;-3.71;100.00
57628;BME280;43451;49.060;10.616;2024-01-16T06:29:58;96076.69;;;-3.76;100.00
57628;BME280;43451;49.060;10.616;2024-01-16T06:32:23;96079.66;;;-3.95;100.00
57628;BME280;43451;49.060;10.616;2024-01-16T06:34:49;96073.59;;;-4.04;100.00
57628;BME280;43451;49.060;10.616;2024-01-16T06:37:15;96063.13;;;-3.92;100.00
57628;BME280;43451;49.060;10.616;2024-01-16T06:39:41;96066.19;;;-3.64;100.00
57628;BME280;43451;49.060;10.616;2024-01-16T06:42:06;96066.69;;;-3.79;100.00
57628;BME280;43451;49.060;10.616;2024-01-16T06:44:32;96069.06;;;-4.12;100.00
57628;BME280;43451;49.060;10.616;2024-01-16T06:46:57;96069.34;;;-3.88;100.00
57628;BME280;43451;49.060;10.616;2024-01-16T06:49:23;96064.53;;;-4.03;100.00
57628;BME280;43451;49.060;10.616;2024-01-16T06:51:49;96059.38;;;-3.91;100.00
57628;BME280;43451;49.060;10.616;2024-01-16T06:54:14;96063.13;;;-3.92;100.00
57628;BME280;43451;49.060;10.616;2024-01-16T06:56:40;96067.50;;;-4.31;100.00
57628;BME280;43451;49.060;10.616;2024-01-16T06:59:05;96070.63;;;-4.46;100.00
57628;BME280;43451;49.060;10.616;2024-01-16T07:01:31;96071.53;;;-4.59;100.00
57628;BME280;43451;49.060;10.616;2024-01-16T07:03:56;96077.13;;;-4.61;100.00
57628;BME280;43451;49.060;10.616;2024-01-16T07:06:22;96067.47;;;-4.65;100.00
57628;BME280;43451;49.060;10.616;2024-01-16T07:08:48;96070.88;;;-4.74;100.00
57628;BME280;43451;49.060;10.616;2024-01-16T07:11:13;96060.13;;;-4.69;100.00
57628;BME280;43451;49.060;10.616;2024-01-16T07:13:43;96068.84;;;-4.77;100.00
57628;BME280;43451;49.060;10.616;2024-01-16T07:16:09;96062.75;;;-4.86;100.00
57628;BME280;43451;49.060;10.616;2024-01-16T07:18:36;96077.56;;;-4.76;100.00
57628;BME280;43451;49.060;10.616;2024-01-16T07:21:01;96077.91;;;-4.60;100.00
57628;BME280;43451;49.060;10.616;2024-01-16T07:23:28;96093.22;;;-4.40;100.00
57628;BME280;43451;49.060;10.616;2024-01-16T07:25:54;96092.78;;;-4.25;100.00
57628;BME280;43451;49.060;10.616;2024-01-16T07:28:19;96098.38;;;-4.17;100.00
57628;BME280;43451;49.060;10.616;2024-01-16T07:30:47;96100.28;;;-4.18;100.00
57628;BME280;43451;49.060;10.616;2024-01-16T07:33:13;96104.78;;;-4.01;100.00
57628;BME280;43451;49.060;10.616;2024-01-16T07:35:38;96091.81;;;-3.94;100.00
57628;BME280;43451;49.060;10.616;2024-01-16T07:38:06;96089.94;;;-3.67;100.00
57628;BME280;43451;49.060;10.616;2024-01-16T07:40:32;96091.47;;;-3.58;100.00
57628;BME280;43451;49.060;10.616;2024-01-16T07:42:57;96092.88;;;-3.52;100.00
57628;BME280;43451;49.060;10.616;2024-01-16T07:45:24;96096.94;;;-3.54;100.00
57628;BME280;43451;49.060;10.616;2024-01-16T07:47:49;96094.13;;;-3.58;100.00
57628;BME280;43451;49.060;10.616;2024-01-16T07:50:15;96093.38;;;-3.58;100.00
57628;BME280;43451;49.060;10.616;2024-01-16T07:52:40;96099.09;;;-3.39;100.00
57628;BME280;43451;49.060;10.616;2024-01-16T07:55:06;96100.94;;;-3.31;100.00
57628;BME280;43451;49.060;10.616;2024-01-16T07:57:31;96098.59;;;-3.23;100.00
57628;BME280;43451;49.060;10.616;2024-01-16T07:59:57;96104.81;;;-3.19;100.00
57628;BME280;43451;49.060;10.616;2024-01-16T08:02:30;96111.47;;;-3.05;100.00
57628;BME280;43451;49.060;10.616;2024-01-16T08:04:56;96105.97;;;-2.91;100.00
57628;BME280;43451;49.060;10.616;2024-01-16T08:07:22;96095.22;;;-2.73;100.00
57628;BME280;43451;49.060;10.616;2024-01-16T08:09:47;96105.72;;;-2.77;100.00
57628;BME280;43451;49.060;10.616;2024-01-16T08:12:13;96102.81;;;-2.84;100.00
57628;BME280;43451;49.060;10.616;2024-01-16T08:14:39;96106.50;;;-2.76;100.00
57628;BME280;43451;49.060;10.616;2024-01-16T08:17:04;96109.38;;;-2.82;100.00
57628;BME280;43451;49.060;10.616;2024-01-16T08:19:30;96107.50;;;-2.90;100.00
57628;BME280;43451;49.060;10.616;2024-01-16T08:21:56;96108.91;;;-2.92;100.00
57628;BME280;43451;49.060;10.616;2024-01-16T08:24:22;96103.19;;;-3.03;100.00
57628;BME280;43451;49.060;10.616;2024-01-16T08:26:48;96109.06;;;-2.89;100.00
57628;BME280;43451;49.060;10.616;2024-01-16T08:29:13;96112.66;;;-2.85;100.00
57628;BME280;43451;49.060;10.616;2024-01-16T08:31:40;96114.09;;;-2.96;100.00
57628;BME280;43451;49.060;10.616;2024-01-16T08:34:05;96111.16;;;-3.03;100.00
57628;BME280;43451;49.060;10.616;2024-01-16T08:36:31;96112.47;;;-2.80;100.00
57628;BME280;43451;49.060;10.616;2024-01-16T08:38:57;96107.50;;;-2.60;100.00
57628;BME280;43451;49.060;10.616;2024-01-16T08:41:22;96108.25;;;-2.51;100.00
57628;BME280;43451;49.060;10.616;2024-01-16T08:43:48;96111.28;;;-2.31;100.00
57628;BME280;43451;49.060;10.616;2024-01-16T08:46:14;96107.13;;;-2.20;100.00
57628;BME280;43451;49.060;10.616;2024-01-16T08:48:40;96108.25;;;-2.21;100.00
57628;BME280;43451;49.060;10.616;2024-01-16T08:51:08;96110.50;;;-2.11;100.00
57628;BME280;43451;49.060;10.616;2024-01-16T08:53:37;96107.91;;;-2.20;100.00
57628;BME280;43451;49.060;10.616;2024-01-16T08:56:03;96110.50;;;-2.11;100.00
57628;BME280;43451;49.060;10.616;2024-01-16T08:58:29;96103.00;;;-2.09;100.00
57628;BME280;43451;49.060;10.616;2024-01-16T09:00:55;96109.88;;;-2.08;100.00
57628;BME280;43451;49.060;10.616;2024-01-16T09:03:21;96107.97;;;-1.87;100.00
57628;BME280;43451;49.060;10.616;2024-01-16T09:05:46;96104.13;;;-1.77;100.00
57628;BME280;43451;49.060;10.616;2024-01-16T09:08:11;96095.28;;;-1.69;100.00
57628;BME280;43451;49.060;10.616;2024-01-16T09:10:37;96087.91;;;-1.84;100.00
57628;BME280;43451;49.060;10.616;2024-01-16T09:13:03;96091.13;;;-1.57;100.00
57628;BME280;43451;49.060;10.616;2024-01-16T09:15:28;96087.47;;;-1.53;100.00
57628;BME280;43451;49.060;10.616;2024-01-16T09:17:54;96093.75;;;-1.24;100.00
57628;BME280;43451;49.060;10.616;2024-01-16T09:20:20;96093.09;;;-1.09;100.00
57628;BME280;43451;49.060;10.616;2024-01-16T09:22:45;96102.00;;;-1.05;99.07
57628;BME280;43451;49.060;10.616;2024-01-16T09:25:11;96105.44;;;-0.92;100.00
57628;BME280;43451;49.060;10.616;2024-01-16T09:27:36;96097.78;;;-1.06;100.00
57628;BME280;43451;49.060;10.616;2024-01-16T09:30:04;96102.91;;;-1.01;100.00
57628;BME280;43451;49.060;10.616;2024-01-16T09:32:29;96111.69;;;-1.00;97.66
57628;BME280;43451;49.060;10.616;2024-01-16T09:34:55;96111.59;;;-0.91;98.39
57628;BME280;43451;49.060;10.616;2024-01-16T09:37:21;96105.59;;;-0.88;100.00
57628;BME280;43451;49.060;10.616;2024-01-16T09:39:46;96103.13;;;-0.94;100.00
57628;BME280;43451;49.060;10.616;2024-01-16T09:42:12;96108.38;;;-0.73;100.00
57628;BME280;43451;49.060;10.616;2024-01-16T09:44:38;96118.03;;;-0.80;99.64
57628;BME280;43451;49.060;10.616;2024-01-16T09:47:04;96118.78;;;-0.80;99.14
57628;BME280;43451;49.060;10.616;2024-01-16T09:49:32;96130.03;;;-0.62;99.97
57628;BME280;43451;49.060;10.616;2024-01-16T09:51:58;96122.25;;;-0.55;99.67
57628;BME280;43451;49.060;10.616;2024-01-16T09:54:24;96132.25;;;-0.39;99.05
57628;BME280;43451;49.060;10.616;2024-01-16T09:56:53;96139.47;;;-0.28;99.61
57628;BME280;43451;49.060;10.616;2024-01-16T09:59:23;96135.59;;;-0.42;100.00
57628;BME280;43451;49.060;10.616;2024-01-16T10:01:51;96134.03;;;-0.31;98.19
57628;BME280;43451;49.060;10.616;2024-01-16T10:04:18;96128.47;;;-0.26;96.53
57628;BME280;43451;49.060;10.616;2024-01-16T10:06:45;96129.03;;;-0.33;98.01
57628;BME280;43451;49.060;10.616;2024-01-16T10:09:14;96122.44;;;-0.11;95.60
57628;BME280;43451;49.060;10.616;2024-01-16T10:11:41;96124.41;;;0.05;95.81
57628;BME280;43451;49.060;10.616;2024-01-16T10:14:07;96134.22;;;0.01;95.76
57628;BME280;43451;49.060;10.616;2024-01-16T10:17:04;96130.78;;;0.00;95.61
57628;BME280;43451;49.060;10.616;2024-01-16T10:19:49;96127.09;;;-0.08;98.47
57628;BME280;43451;49.060;10.616;2024-01-16T10:22:22;96121.50;;;0.10;97.39
57628;BME280;43451;49.060;10.616;2024-01-16T10:25:16;96118.59;;;0.15;96.10
57628;BME280;43451;49.060;10.616;2024-01-16T10:27:45;96119.75;;;0.02;97.82
57628;BME280;43451;49.060;10.616;2024-01-16T10:30:11;96108.69;;;0.15;97.63
57628;BME280;43451;49.060;10.616;2024-01-16T10:32:38;96114.78;;;0.16;96.52
57628;BME280;43451;49.060;10.616;2024-01-16T10:35:11;96112.19;;;0.32;97.35
57628;BME280;43451;49.060;10.616;2024-01-16T10:37:53;96114.06;;;0.31;95.57
57628;BME280;43451;49.060;10.616;2024-01-16T10:40:22;96106.78;;;0.44;91.54
57628;BME280;43451;49.060;10.616;2024-01-16T10:43:00;96106.22;;;0.22;93.11
57628;BME280;43451;49.060;10.616;2024-01-16T10:45:25;96100.50;;;0.36;94.58
57628;BME280;43451;49.060;10.616;2024-01-16T10:48:05;96087.31;;;0.43;91.37
57628;BME280;43451;49.060;10.616;2024-01-16T10:50:32;96093.59;;;0.35;89.77
57628;BME280;43451;49.060;10.616;2024-01-16T10:53:00;96093.28;;;0.25;90.95
57628;BME280;43451;49.060;10.616;2024-01-16T10:55:28;96093.56;;;0.19;91.48
57628;BME280;43451;49.060;10.616;2024-01-16T10:57:56;96094.31;;;0.20;95.99
57628;BME280;43451;49.060;10.616;2024-01-16T11:00:23;96092.75;;;0.19;93.17
57628;BME280;43451;49.060;10.616;2024-01-16T11:05:23;96086.50;;;0.27;99.89
57628;BME280;43451;49.060;10.616;2024-01-16T11:07:50;96088.25;;;0.35;99.81
57628;BME280;43451;49.060;10.616;2024-01-16T11:10:17;96075.84;;;0.43;100.00
57628;BME280;43451;49.060;10.616;2024-01-16T11:12:43;96072.34;;;0.55;98.72
57628;BME280;43451;49.060;10.616;2024-01-16T11:15:11;96073.06;;;0.67;94.61
57628;BME280;43451;49.060;10.616;2024-01-16T11:17:38;96086.97;;;0.89;95.34
57628;BME280;43451;49.060;10.616;2024-01-16T11:20:05;96086.38;;;0.96;94.99
57628;BME280;43451;49.060;10.616;2024-01-16T11:22:39;96086.56;;;1.03;95.18
57628;BME280;43451;49.060;10.616;2024-01-16T11:25:13;96083.97;;;1.22;93.85
57628;BME280;43451;49.060;10.616;2024-01-16T11:27:40;96071.50;;;1.46;89.43
57628;BME280;43451;49.060;10.616;2024-01-16T11:30:07;96076.28;;;1.36;90.23
57628;BME280;43451;49.060;10.616;2024-01-16T11:35:01;96063.06;;;1.44;84.14
57628;BME280;43451;49.060;10.616;2024-01-16T11:37:29;96057.78;;;1.82;84.58
57628;BME280;43451;49.060;10.616;2024-01-16T11:42:52;96048.09;;;1.43;83.92
57628;BME280;43451;49.060;10.616;2024-01-16T11:48:17;96048.63;;;1.48;85.62
57628;BME280;43451;49.060;10.616;2024-01-16T11:50:44;96034.63;;;1.55;86.57
57628;BME280;43451;49.060;10.616;2024-01-16T11:53:10;96035.78;;;1.73;88.01
57628;BME280;43451;49.060;10.616;2024-01-16T11:58:42;96017.03;;;1.73;84.18
57628;BME280;43451;49.060;10.616;2024-01-16T12:01:11;96005.47;;;1.69;85.36
57628;BME280;43451;49.060;10.616;2024-01-16T12:03:37;96004.34;;;1.70;80.16
57628;BME280;43451;49.060;10.616;2024-01-16T12:06:03;95999.69;;;1.67;80.81
57628;BME280;43451;49.060;10.616;2024-01-16T12:08:32;96005.16;;;1.55;79.34
57628;BME280;43451;49.060;10.616;2024-01-16T12:10:58;96007.66;;;1.63;84.95
57628;BME280;43451;49.060;10.616;2024-01-16T12:13:25;96003.63;;;1.54;83.96
57628;BME280;43451;49.060;10.616;2024-01-16T12:16:02;96003.47;;;1.47;86.31
57628;BME280;43451;49.060;10.616;2024-01-16T12:18:29;96002.94;;;1.57;84.15
57628;BME280;43451;49.060;10.616;2024-01-16T12:20:54;95991.91;;;1.78;82.57
57628;BME280;43451;49.060;10.616;2024-01-16T12:23:20;95989.41;;;1.69;78.91
57628;BME280;43451;49.060;10.616;2024-01-16T12:25:52;95988.44;;;1.97;72.13
57628;BME280;43451;49.060;10.616;2024-01-16T12:28:20;95987.72;;;1.61;83.12
57628;BME280;43451;49.060;10.616;2024-01-16T12:30:49;95990.75;;;1.59;84.88
57628;BME280;43451;49.060;10.616;2024-01-16T12:33:15;95977.56;;;1.51;90.62
57628;BME280;43451;49.060;10.616;2024-01-16T12:35:43;95982.97;;;1.54;82.57
57628;BME280;43451;49.060;10.616;2024-01-16T12:38:11;95990.03;;;1.43;81.76
57628;BME280;43451;49.060;10.616;2024-01-16T12:40:40;95985.16;;;1.49;87.82
57628;BME280;43451;49.060;10.616;2024-01-16T12:43:07;95980.75;;;1.56;82.66
57628;BME280;43451;49.060;10.616;2024-01-16T12:45:35;95970.94;;;1.64;82.73
57628;BME280;43451;49.060;10.616;2024-01-16T12:48:01;95966.16;;;1.54;78.13
57628;BME280;43451;49.060;10.616;2024-01-16T12:50:30;95954.81;;;1.41;75.99
57628;BME280;43451;49.060;10.616;2024-01-16T12:53:09;95948.91;;;1.16;86.71
57628;BME280;43451;49.060;10.616;2024-01-16T12:55:37;95946.13;;;1.28;82.29